sensor_id;sensor_type;location;lat;lon;timestamp;temperature;humidity
63047;DHT22;62025;39.238;9.126;2022-09-09T00:00:49;28.90;68.50
63047;DHT22;62025;39.238;9.126;2022-09-09T00:03:26;28.90;68.50
63047;DHT22;62025;39.238;9.126;2022-09-09T00:06:11;28.90;68.10
63047;DHT22;62025;39.238;9.126;2022-09-09T00:08:58;28.90;68.20
63047;DHT22;62025;39.238;9.126;2022-09-09T00:11:51;28.90;68.10
63047;DHT22;62025;39.238;9.126;2022-09-09T00:17:18;28.80;68.40
63047;DHT22;62025;39.238;9.126;2022-09-09T00:22:57;28.80;68.40
63047;DHT22;62025;39.238;9.126;2022-09-09T00:31:41;28.70;68.60
63047;DHT22;62025;39.238;9.126;2022-09-09T00:34:18;28.60;68.60
63047;DHT22;62025;39.238;9.126;2022-09-09T00:36:50;28.70;68.60
63047;DHT22;62025;39.238;9.126;2022-09-09T00:39:27;28.60;68.50
63047;DHT22;62025;39.238;9.126;2022-09-09T00:42:18;28.60;68.60
63047;DHT22;62025;39.238;9.126;2022-09-09T00:45:02;28.60;68.60
63047;DHT22;62025;39.238;9.126;2022-09-09T00:47:46;28.60;68.50
63047;DHT22;62025;39.238;9.126;2022-09-09T00:53:26;28.60;68.40
63047;DHT22;62025;39.238;9.126;2022-09-09T01:01:41;28.60;68.20
63047;DHT22;62025;39.238;9.126;2022-09-09T01:04:15;28.50;68.20
63047;DHT22;62025;39.238;9.126;2022-09-09T01:06:51;28.40;68.20
63047;DHT22;62025;39.238;9.126;2022-09-09T01:12:40;28.50;67.80
63047;DHT22;62025;39.238;9.126;2022-09-09T01:15:12;28.40;67.70
63047;DHT22;62025;39.238;9.126;2022-09-09T01:20:41;28.50;67.60
63047;DHT22;62025;39.238;9.126;2022-09-09T01:23:29;28.40;67.60
63047;DHT22;62025;39.238;9.126;2022-09-09T01:26:26;28.40;67.60
63047;DHT22;62025;39.238;9.126;2022-09-09T01:28:59;28.40;67.30
63047;DHT22;62025;39.238;9.126;2022-09-09T01:31:39;28.40;67.50
63047;DHT22;62025;39.238;9.126;2022-09-09T01:34:13;28.40;67.20
63047;DHT22;62025;39.238;9.126;2022-09-09T01:36:47;28.40;67.10
63047;DHT22;62025;39.238;9.126;2022-09-09T01:39:19;28.30;67.20
63047;DHT22;62025;39.238;9.126;2022-09-09T01:41:53;28.20;67.40
63047;DHT22;62025;39.238;9.126;2022-09-09T01:44:20;28.20;67.30
63047;DHT22;62025;39.238;9.126;2022-09-09T01:46:47;28.20;67.30
63047;DHT22;62025;39.238;9.126;2022-09-09T01:49:19;28.20;67.30
63047;DHT22;62025;39.238;9.126;2022-09-09T01:51:50;28.20;67.30
63047;DHT22;62025;39.238;9.126;2022-09-09T01:54:28;28.20;67.30
63047;DHT22;62025;39.238;9.126;2022-09-09T01:57:08;28.20;67.10
63047;DHT22;62025;39.238;9.126;2022-09-09T02:00:03;28.20;67.20
63047;DHT22;62025;39.238;9.126;2022-09-09T02:11:11;28.00;67.90
63047;DHT22;62025;39.238;9.126;2022-09-09T02:13:51;28.00;68.00
63047;DHT22;62025;39.238;9.126;2022-09-09T02:16:34;28.00;68.10
63047;DHT22;62025;39.238;9.126;2022-09-09T02:21:47;28.00;68.40
63047;DHT22;62025;39.238;9.126;2022-09-09T02:24:15;28.00;68.50
63047;DHT22;62025;39.238;9.126;2022-09-09T02:26:51;27.90;68.70
63047;DHT22;62025;39.238;9.126;2022-09-09T02:29:25;27.90;68.70
63047;DHT22;62025;39.238;9.126;2022-09-09T02:31:57;27.90;68.70
63047;DHT22;62025;39.238;9.126;2022-09-09T02:34:31;27.90;68.80
63047;DHT22;62025;39.238;9.126;2022-09-09T02:37:03;27.90;68.80
63047;DHT22;62025;39.238;9.126;2022-09-09T02:39:32;27.90;68.80
63047;DHT22;62025;39.238;9.126;2022-09-09T02:41:59;28.00;68.70
63047;DHT22;62025;39.238;9.126;2022-09-09T02:44:30;27.90;68.70
63047;DHT22;62025;39.238;9.126;2022-09-09T02:47:13;27.90;68.70
63047;DHT22;62025;39.238;9.126;2022-09-09T02:52:23;28.00;68.80
63047;DHT22;62025;39.238;9.126;2022-09-09T02:54:59;28.00;69.00
63047;DHT22;62025;39.238;9.126;2022-09-09T02:57:30;27.90;69.20
63047;DHT22;62025;39.238;9.126;2022-09-09T02:59:58;28.00;69.30
63047;DHT22;62025;39.238;9.126;2022-09-09T03:02:25;27.90;69.60
63047;DHT22;62025;39.238;9.126;2022-09-09T03:04:56;27.90;69.90
63047;DHT22;62025;39.238;9.126;2022-09-09T03:07:22;27.90;70.10
63047;DHT22;62025;39.238;9.126;2022-09-09T03:09:50;27.90;70.30
63047;DHT22;62025;39.238;9.126;2022-09-09T03:12:16;27.80;70.30
63047;DHT22;62025;39.238;9.126;2022-09-09T03:14:43;27.80;70.20
63047;DHT22;62025;39.238;9.126;2022-09-09T03:17:11;27.80;70.20
63047;DHT22;62025;39.238;9.126;2022-09-09T03:19:44;27.80;70.00
63047;DHT22;62025;39.238;9.126;2022-09-09T03:22:12;27.90;69.80
63047;DHT22;62025;39.238;9.126;2022-09-09T03:24:41;27.90;69.50
63047;DHT22;62025;39.238;9.126;2022-09-09T03:27:07;27.90;69.40
63047;DHT22;62025;39.238;9.126;2022-09-09T03:29:35;27.90;69.10
63047;DHT22;62025;39.238;9.126;2022-09-09T03:32:06;27.80;69.10
63047;DHT22;62025;39.238;9.126;2022-09-09T03:34:32;27.80;68.90
63047;DHT22;62025;39.238;9.126;2022-09-09T03:36:58;27.70;69.00
63047;DHT22;62025;39.238;9.126;2022-09-09T03:39:26;27.70;68.80
63047;DHT22;62025;39.238;9.126;2022-09-09T03:41:52;27.70;68.60
63047;DHT22;62025;39.238;9.126;2022-09-09T03:44:19;27.80;68.50
63047;DHT22;62025;39.238;9.126;2022-09-09T03:46:46;27.70;68.60
63047;DHT22;62025;39.238;9.126;2022-09-09T03:49:14;27.70;68.50
63047;DHT22;62025;39.238;9.126;2022-09-09T03:51:41;27.70;68.60
63047;DHT22;62025;39.238;9.126;2022-09-09T03:54:10;27.70;68.60
63047;DHT22;62025;39.238;9.126;2022-09-09T03:56:37;27.60;68.50
63047;DHT22;62025;39.238;9.126;2022-09-09T03:59:03;27.70;68.50
63047;DHT22;62025;39.238;9.126;2022-09-09T04:01:30;27.60;68.60
63047;DHT22;62025;39.238;9.126;2022-09-09T04:03:56;27.60;68.70
63047;DHT22;62025;39.238;9.126;2022-09-09T04:06:24;27.60;68.60
63047;DHT22;62025;39.238;9.126;2022-09-09T04:08:51;27.50;68.80
63047;DHT22;62025;39.238;9.126;2022-09-09T04:11:19;27.60;68.70
63047;DHT22;62025;39.238;9.126;2022-09-09T04:13:47;27.50;68.80
63047;DHT22;62025;39.238;9.126;2022-09-09T04:16:15;27.50;68.70
63047;DHT22;62025;39.238;9.126;2022-09-09T04:18:42;27.50;68.90
63047;DHT22;62025;39.238;9.126;2022-09-09T04:21:10;27.50;68.90
63047;DHT22;62025;39.238;9.126;2022-09-09T04:23:38;27.50;68.80
63047;DHT22;62025;39.238;9.126;2022-09-09T04:26:05;27.40;68.90
63047;DHT22;62025;39.238;9.126;2022-09-09T04:28:34;27.40;69.00
63047;DHT22;62025;39.238;9.126;2022-09-09T04:31:09;27.40;69.00
63047;DHT22;62025;39.238;9.126;2022-09-09T04:33:40;27.40;69.00
63047;DHT22;62025;39.238;9.126;2022-09-09T04:36:07;27.40;69.00
63047;DHT22;62025;39.238;9.126;2022-09-09T04:38:34;27.40;69.10
63047;DHT22;62025;39.238;9.126;2022-09-09T04:41:01;27.40;69.10
63047;DHT22;62025;39.238;9.126;2022-09-09T04:43:28;27.40;69.20
63047;DHT22;62025;39.238;9.126;2022-09-09T04:45:54;27.40;69.30
63047;DHT22;62025;39.238;9.126;2022-09-09T04:48:23;27.40;69.30
63047;DHT22;62025;39.238;9.126;2022-09-09T04:51:12;27.40;69.30
63047;DHT22;62025;39.238;9.126;2022-09-09T04:53:39;27.40;69.20
63047;DHT22;62025;39.238;9.126;2022-09-09T04:56:09;27.40;69.30
63047;DHT22;62025;39.238;9.126;2022-09-09T04:58:41;27.30;69.20
63047;DHT22;62025;39.238;9.126;2022-09-09T05:01:18;27.30;69.20
63047;DHT22;62025;39.238;9.126;2022-09-09T05:03:46;27.30;69.20
63047;DHT22;62025;39.238;9.126;2022-09-09T05:06:19;27.40;69.10
63047;DHT22;62025;39.238;9.126;2022-09-09T05:08:49;27.40;69.00
63047;DHT22;62025;39.238;9.126;2022-09-09T05:11:23;27.50;68.60
63047;DHT22;62025;39.238;9.126;2022-09-09T05:13:53;27.40;68.80
63047;DHT22;62025;39.238;9.126;2022-09-09T05:16:20;27.40;68.90
63047;DHT22;62025;39.238;9.126;2022-09-09T05:18:47;27.40;68.70
63047;DHT22;62025;39.238;9.126;2022-09-09T05:21:15;27.40;68.80
63047;DHT22;62025;39.238;9.126;2022-09-09T05:23:42;27.40;68.60
63047;DHT22;62025;39.238;9.126;2022-09-09T05:26:13;27.40;68.90
63047;DHT22;62025;39.238;9.126;2022-09-09T05:28:45;27.40;68.90
63047;DHT22;62025;39.238;9.126;2022-09-09T05:31:14;27.40;68.90
63047;DHT22;62025;39.238;9.126;2022-09-09T05:33:45;27.40;68.90
63047;DHT22;62025;39.238;9.126;2022-09-09T05:36:18;27.40;69.00
63047;DHT22;62025;39.238;9.126;2022-09-09T05:38:48;27.40;69.00
63047;DHT22;62025;39.238;9.126;2022-09-09T05:41:16;27.40;68.90
63047;DHT22;62025;39.238;9.126;2022-09-09T05:43:44;27.40;68.90
63047;DHT22;62025;39.238;9.126;2022-09-09T05:46:14;27.40;68.90
63047;DHT22;62025;39.238;9.126;2022-09-09T05:48:43;27.40;68.90
63047;DHT22;62025;39.238;9.126;2022-09-09T05:51:16;27.40;68.80
63047;DHT22;62025;39.238;9.126;2022-09-09T05:53:45;27.40;68.80
63047;DHT22;62025;39.238;9.126;2022-09-09T05:56:17;27.40;68.70
63047;DHT22;62025;39.238;9.126;2022-09-09T05:58:46;27.50;68.50
63047;DHT22;62025;39.238;9.126;2022-09-09T06:01:16;27.50;68.20
63047;DHT22;62025;39.238;9.126;2022-09-09T06:03:47;27.60;68.00
63047;DHT22;62025;39.238;9.126;2022-09-09T06:06:17;27.60;68.00
63047;DHT22;62025;39.238;9.126;2022-09-09T06:08:47;27.80;67.50
63047;DHT22;62025;39.238;9.126;2022-09-09T06:11:18;28.00;66.60
63047;DHT22;62025;39.238;9.126;2022-09-09T06:13:45;28.00;66.90
63047;DHT22;62025;39.238;9.126;2022-09-09T06:16:14;28.20;66.20
63047;DHT22;62025;39.238;9.126;2022-09-09T06:18:43;28.30;66.00
63047;DHT22;62025;39.238;9.126;2022-09-09T06:21:19;28.30;65.70
63047;DHT22;62025;39.238;9.126;2022-09-09T06:23:47;28.30;65.30
63047;DHT22;62025;39.238;9.126;2022-09-09T06:26:19;28.30;65.60
63047;DHT22;62025;39.238;9.126;2022-09-09T06:28:51;28.40;65.10
63047;DHT22;62025;39.238;9.126;2022-09-09T06:31:20;28.50;65.00
63047;DHT22;62025;39.238;9.126;2022-09-09T06:33:52;28.60;64.70
63047;DHT22;62025;39.238;9.126;2022-09-09T06:36:25;28.70;64.60
63047;DHT22;62025;39.238;9.126;2022-09-09T06:38:53;28.90;64.40
63047;DHT22;62025;39.238;9.126;2022-09-09T06:41:21;28.90;64.00
63047;DHT22;62025;39.238;9.126;2022-09-09T06:43:49;28.90;63.70
63047;DHT22;62025;39.238;9.126;2022-09-09T06:46:18;29.00;63.80
63047;DHT22;62025;39.238;9.126;2022-09-09T06:48:46;29.00;63.50
63047;DHT22;62025;39.238;9.126;2022-09-09T06:51:17;29.10;63.40
63047;DHT22;62025;39.238;9.126;2022-09-09T06:53:46;29.00;63.60
63047;DHT22;62025;39.238;9.126;2022-09-09T06:56:18;29.00;63.70
63047;DHT22;62025;39.238;9.126;2022-09-09T06:58:51;29.00;63.50
63047;DHT22;62025;39.238;9.126;2022-09-09T07:01:25;29.10;63.30
63047;DHT22;62025;39.238;9.126;2022-09-09T07:03:57;29.10;62.90
63047;DHT22;62025;39.238;9.126;2022-09-09T07:06:37;29.20;63.00
63047;DHT22;62025;39.238;9.126;2022-09-09T07:09:07;29.30;62.80
63047;DHT22;62025;39.238;9.126;2022-09-09T07:11:45;29.40;62.30
63047;DHT22;62025;39.238;9.126;2022-09-09T07:14:13;29.40;62.30
63047;DHT22;62025;39.238;9.126;2022-09-09T07:16:44;29.50;61.70
63047;DHT22;62025;39.238;9.126;2022-09-09T07:19:11;29.50;60.90
63047;DHT22;62025;39.238;9.126;2022-09-09T07:21:39;29.50;60.20
63047;DHT22;62025;39.238;9.126;2022-09-09T07:24:07;29.50;59.80
63047;DHT22;62025;39.238;9.126;2022-09-09T07:26:39;29.70;59.80
63047;DHT22;62025;39.238;9.126;2022-09-09T07:29:07;29.70;59.30
63047;DHT22;62025;39.238;9.126;2022-09-09T07:31:36;29.70;59.30
63047;DHT22;62025;39.238;9.126;2022-09-09T07:34:07;29.70;59.00
63047;DHT22;62025;39.238;9.126;2022-09-09T07:36:36;29.80;58.70
63047;DHT22;62025;39.238;9.126;2022-09-09T07:39:08;29.90;58.60
63047;DHT22;62025;39.238;9.126;2022-09-09T07:41:45;30.10;58.60
63047;DHT22;62025;39.238;9.126;2022-09-09T07:44:16;30.20;58.30
63047;DHT22;62025;39.238;9.126;2022-09-09T07:46:46;30.10;57.90
63047;DHT22;62025;39.238;9.126;2022-09-09T07:49:16;30.10;57.70
63047;DHT22;62025;39.238;9.126;2022-09-09T07:51:46;30.30;57.50
63047;DHT22;62025;39.238;9.126;2022-09-09T07:54:16;30.30;57.30
63047;DHT22;62025;39.238;9.126;2022-09-09T07:56:48;30.30;57.40
63047;DHT22;62025;39.238;9.126;2022-09-09T07:59:16;30.40;56.80
63047;DHT22;62025;39.238;9.126;2022-09-09T08:01:49;30.70;56.40
63047;DHT22;62025;39.238;9.126;2022-09-09T08:04:20;30.80;56.10
63047;DHT22;62025;39.238;9.126;2022-09-09T08:06:50;30.80;55.90
63047;DHT22;62025;39.238;9.126;2022-09-09T08:09:24;30.80;55.90
63047;DHT22;62025;39.238;9.126;2022-09-09T08:11:56;30.80;55.00
63047;DHT22;62025;39.238;9.126;2022-09-09T08:14:23;30.80;54.60
63047;DHT22;62025;39.238;9.126;2022-09-09T08:16:50;30.70;53.90
63047;DHT22;62025;39.238;9.126;2022-09-09T08:19:21;31.00;53.80
63047;DHT22;62025;39.238;9.126;2022-09-09T08:21:48;31.00;53.30
63047;DHT22;62025;39.238;9.126;2022-09-09T08:24:14;30.90;53.10
63047;DHT22;62025;39.238;9.126;2022-09-09T08:26:45;30.70;53.00
63047;DHT22;62025;39.238;9.126;2022-09-09T08:29:16;30.90;52.70
63047;DHT22;62025;39.238;9.126;2022-09-09T08:31:50;31.20;52.00
63047;DHT22;62025;39.238;9.126;2022-09-09T08:34:21;31.10;52.30
63047;DHT22;62025;39.238;9.126;2022-09-09T08:36:50;31.10;52.80
63047;DHT22;62025;39.238;9.126;2022-09-09T08:39:21;31.10;52.30
63047;DHT22;62025;39.238;9.126;2022-09-09T08:50:36;31.80;49.30
63047;DHT22;62025;39.238;9.126;2022-09-09T08:53:38;32.10;48.10
63047;DHT22;62025;39.238;9.126;2022-09-09T08:56:16;32.00;48.20
63047;DHT22;62025;39.238;9.126;2022-09-09T08:58:56;31.90;47.40
63047;DHT22;62025;39.238;9.126;2022-09-09T09:01:42;31.70;47.50
63047;DHT22;62025;39.238;9.126;2022-09-09T09:04:58;31.50;48.50
63047;DHT22;62025;39.238;9.126;2022-09-09T09:12:57;31.70;47.00
63047;DHT22;62025;39.238;9.126;2022-09-09T09:15:26;31.80;46.40
63047;DHT22;62025;39.238;9.126;2022-09-09T09:17:57;31.80;46.20
63047;DHT22;62025;39.238;9.126;2022-09-09T09:23:29;32.70;45.20
63047;DHT22;62025;39.238;9.126;2022-09-09T09:26:07;32.40;44.90
63047;DHT22;62025;39.238;9.126;2022-09-09T09:28:36;32.30;44.80
63047;DHT22;62025;39.238;9.126;2022-09-09T09:31:12;32.50;43.40
63047;DHT22;62025;39.238;9.126;2022-09-09T09:33:53;32.40;43.50
63047;DHT22;62025;39.238;9.126;2022-09-09T09:36:35;32.20;42.50
63047;DHT22;62025;39.238;9.126;2022-09-09T09:39:10;32.20;43.00
63047;DHT22;62025;39.238;9.126;2022-09-09T09:41:42;32.30;42.40
63047;DHT22;62025;39.238;9.126;2022-09-09T09:44:31;32.40;42.20
63047;DHT22;62025;39.238;9.126;2022-09-09T09:47:11;32.30;42.50
63047;DHT22;62025;39.238;9.126;2022-09-09T09:49:58;32.50;42.30
63047;DHT22;62025;39.238;9.126;2022-09-09T09:52:28;32.40;42.10
63047;DHT22;62025;39.238;9.126;2022-09-09T09:54:58;32.70;41.60
63047;DHT22;62025;39.238;9.126;2022-09-09T09:57:32;33.20;41.10
63047;DHT22;62025;39.238;9.126;2022-09-09T10:00:15;33.70;40.50
63047;DHT22;62025;39.238;9.126;2022-09-09T10:02:50;33.60;40.80
63047;DHT22;62025;39.238;9.126;2022-09-09T10:05:24;33.10;41.30
63047;DHT22;62025;39.238;9.126;2022-09-09T10:08:13;33.20;41.20
63047;DHT22;62025;39.238;9.126;2022-09-09T10:14:32;33.30;41.40
63047;DHT22;62025;39.238;9.126;2022-09-09T10:17:46;33.50;41.00
63047;DHT22;62025;39.238;9.126;2022-09-09T10:32:53;33.30;40.30
63047;DHT22;62025;39.238;9.126;2022-09-09T10:38:21;33.50;39.60
63047;DHT22;62025;39.238;9.126;2022-09-09T10:46:23;33.30;39.10
63047;DHT22;62025;39.238;9.126;2022-09-09T10:52:28;33.00;38.90
63047;DHT22;62025;39.238;9.126;2022-09-09T10:57:49;32.90;39.30
63047;DHT22;62025;39.238;9.126;2022-09-09T11:00:22;32.90;38.60
63047;DHT22;62025;39.238;9.126;2022-09-09T11:03:30;32.90;38.20
63047;DHT22;62025;39.238;9.126;2022-09-09T11:06:16;32.80;39.00
63047;DHT22;62025;39.238;9.126;2022-09-09T11:08:45;32.80;38.70
63047;DHT22;62025;39.238;9.126;2022-09-09T11:11:14;32.90;38.70
63047;DHT22;62025;39.238;9.126;2022-09-09T11:13:52;32.50;37.90
63047;DHT22;62025;39.238;9.126;2022-09-09T11:34:09;33.00;36.00
63047;DHT22;62025;39.238;9.126;2022-09-09T11:37:23;32.50;36.40
63047;DHT22;62025;39.238;9.126;2022-09-09T11:40:30;32.40;36.00
63047;DHT22;62025;39.238;9.126;2022-09-09T11:43:09;32.40;35.20
63047;DHT22;62025;39.238;9.126;2022-09-09T11:45:39;32.70;35.80
63047;DHT22;62025;39.238;9.126;2022-09-09T11:48:26;32.60;34.90
63047;DHT22;62025;39.238;9.126;2022-09-09T11:51:07;32.40;35.30
63047;DHT22;62025;39.238;9.126;2022-09-09T11:53:47;32.40;33.50
63047;DHT22;62025;39.238;9.126;2022-09-09T11:56:43;32.40;33.90
63047;DHT22;62025;39.238;9.126;2022-09-09T11:59:25;32.70;33.20
63047;DHT22;62025;39.238;9.126;2022-09-09T12:02:03;33.00;30.70
63047;DHT22;62025;39.238;9.126;2022-09-09T12:04:44;33.10;32.10
63047;DHT22;62025;39.238;9.126;2022-09-09T12:07:33;33.10;30.50
63047;DHT22;62025;39.238;9.126;2022-09-09T12:10:28;33.30;31.50
63047;DHT22;62025;39.238;9.126;2022-09-09T12:13:20;33.30;32.50
63047;DHT22;62025;39.238;9.126;2022-09-09T12:15:50;33.30;32.50
63047;DHT22;62025;39.238;9.126;2022-09-09T12:18:34;33.10;32.20
63047;DHT22;62025;39.238;9.126;2022-09-09T12:24:09;33.20;32.60
63047;DHT22;62025;39.238;9.126;2022-09-09T12:32:16;33.40;38.30
63047;DHT22;62025;39.238;9.126;2022-09-09T12:35:09;32.90;44.00
63047;DHT22;62025;39.238;9.126;2022-09-09T12:37:56;32.70;44.70
63047;DHT22;62025;39.238;9.126;2022-09-09T12:40:30;33.00;44.50
63047;DHT22;62025;39.238;9.126;2022-09-09T12:42:58;32.70;47.30
63047;DHT22;62025;39.238;9.126;2022-09-09T12:45:30;32.70;47.30
63047;DHT22;62025;39.238;9.126;2022-09-09T12:48:04;32.60;47.00
63047;DHT22;62025;39.238;9.126;2022-09-09T12:50:37;32.70;48.30
63047;DHT22;62025;39.238;9.126;2022-09-09T12:53:31;32.10;50.40
63047;DHT22;62025;39.238;9.126;2022-09-09T12:56:03;32.00;51.50
63047;DHT22;62025;39.238;9.126;2022-09-09T12:58:32;32.50;48.70
63047;DHT22;62025;39.238;9.126;2022-09-09T13:00:59;32.60;47.80
63047;DHT22;62025;39.238;9.126;2022-09-09T13:03:27;32.50;46.80
63047;DHT22;62025;39.238;9.126;2022-09-09T13:05:57;32.70;45.20
63047;DHT22;62025;39.238;9.126;2022-09-09T13:08:26;32.80;44.90
63047;DHT22;62025;39.238;9.126;2022-09-09T13:10:57;33.00;44.50
63047;DHT22;62025;39.238;9.126;2022-09-09T13:13:28;32.70;43.80
63047;DHT22;62025;39.238;9.126;2022-09-09T13:16:01;32.80;42.80
63047;DHT22;62025;39.238;9.126;2022-09-09T13:18:35;32.90;41.80
63047;DHT22;62025;39.238;9.126;2022-09-09T13:21:03;33.00;43.20
63047;DHT22;62025;39.238;9.126;2022-09-09T13:23:31;32.90;44.00
63047;DHT22;62025;39.238;9.126;2022-09-09T13:26:04;32.80;44.20
63047;DHT22;62025;39.238;9.126;2022-09-09T13:28:33;32.50;42.70
63047;DHT22;62025;39.238;9.126;2022-09-09T13:31:05;32.50;42.50
63047;DHT22;62025;39.238;9.126;2022-09-09T13:33:45;32.90;41.80
63047;DHT22;62025;39.238;9.126;2022-09-09T13:36:12;32.80;42.20
63047;DHT22;62025;39.238;9.126;2022-09-09T13:38:56;32.90;41.60
63047;DHT22;62025;39.238;9.126;2022-09-09T13:41:36;32.80;41.70
63047;DHT22;62025;39.238;9.126;2022-09-09T13:44:20;33.00;41.40
63047;DHT22;62025;39.238;9.126;2022-09-09T13:47:53;32.70;43.60
63047;DHT22;62025;39.238;9.126;2022-09-09T13:50:20;32.30;44.40
63047;DHT22;62025;39.238;9.126;2022-09-09T13:52:59;32.20;45.20
63047;DHT22;62025;39.238;9.126;2022-09-09T13:55:27;32.40;44.20
63047;DHT22;62025;39.238;9.126;2022-09-09T13:58:00;32.40;44.20
63047;DHT22;62025;39.238;9.126;2022-09-09T14:00:29;32.50;43.40
63047;DHT22;62025;39.238;9.126;2022-09-09T14:02:57;32.50;42.50
63047;DHT22;62025;39.238;9.126;2022-09-09T14:05:25;32.50;43.20
63047;DHT22;62025;39.238;9.126;2022-09-09T14:07:53;32.60;40.90
63047;DHT22;62025;39.238;9.126;2022-09-09T14:10:19;32.90;39.40
63047;DHT22;62025;39.238;9.126;2022-09-09T14:12:46;32.80;38.60
63047;DHT22;62025;39.238;9.126;2022-09-09T14:15:12;32.90;39.70
63047;DHT22;62025;39.238;9.126;2022-09-09T14:17:40;32.80;41.90
63047;DHT22;62025;39.238;9.126;2022-09-09T14:20:07;32.60;42.30
63047;DHT22;62025;39.238;9.126;2022-09-09T14:22:33;32.50;41.80
63047;DHT22;62025;39.238;9.126;2022-09-09T14:25:01;32.50;38.20
63047;DHT22;62025;39.238;9.126;2022-09-09T14:27:27;32.40;33.50
63047;DHT22;62025;39.238;9.126;2022-09-09T14:29:54;32.40;32.80
63047;DHT22;62025;39.238;9.126;2022-09-09T14:32:20;32.40;33.20
63047;DHT22;62025;39.238;9.126;2022-09-09T14:34:47;32.30;46.30
63047;DHT22;62025;39.238;9.126;2022-09-09T14:37:16;32.20;47.60
63047;DHT22;62025;39.238;9.126;2022-09-09T14:39:43;32.20;48.70
63047;DHT22;62025;39.238;9.126;2022-09-09T14:42:13;32.20;48.40
63047;DHT22;62025;39.238;9.126;2022-09-09T14:44:40;32.20;48.00
63047;DHT22;62025;39.238;9.126;2022-09-09T14:47:07;32.20;45.30
63047;DHT22;62025;39.238;9.126;2022-09-09T14:49:34;32.20;45.70
63047;DHT22;62025;39.238;9.126;2022-09-09T14:52:01;32.10;46.50
63047;DHT22;62025;39.238;9.126;2022-09-09T14:54:28;32.20;44.90
63047;DHT22;62025;39.238;9.126;2022-09-09T14:56:55;32.20;47.90
63047;DHT22;62025;39.238;9.126;2022-09-09T14:59:22;32.30;49.60
63047;DHT22;62025;39.238;9.126;2022-09-09T15:01:49;32.00;53.10
63047;DHT22;62025;39.238;9.126;2022-09-09T15:04:15;31.90;54.30
63047;DHT22;62025;39.238;9.126;2022-09-09T15:06:42;31.90;51.50
63047;DHT22;62025;39.238;9.126;2022-09-09T15:09:12;31.90;51.10
63047;DHT22;62025;39.238;9.126;2022-09-09T15:11:38;32.00;54.00
63047;DHT22;62025;39.238;9.126;2022-09-09T15:14:07;32.00;55.00
63047;DHT22;62025;39.238;9.126;2022-09-09T15:16:34;31.70;57.90
63047;DHT22;62025;39.238;9.126;2022-09-09T15:19:01;31.60;59.10
63047;DHT22;62025;39.238;9.126;2022-09-09T15:21:31;31.60;59.40
63047;DHT22;62025;39.238;9.126;2022-09-09T15:23:59;31.50;60.80
63047;DHT22;62025;39.238;9.126;2022-09-09T15:26:26;31.30;61.50
63047;DHT22;62025;39.238;9.126;2022-09-09T15:28:53;31.40;60.40
63047;DHT22;62025;39.238;9.126;2022-09-09T15:31:23;31.30;61.70
63047;DHT22;62025;39.238;9.126;2022-09-09T15:33:52;31.30;63.50
63047;DHT22;62025;39.238;9.126;2022-09-09T15:36:38;31.20;63.40
63047;DHT22;62025;39.238;9.126;2022-09-09T15:39:13;31.10;64.10
63047;DHT22;62025;39.238;9.126;2022-09-09T15:41:48;31.00;64.40
63047;DHT22;62025;39.238;9.126;2022-09-09T15:44:14;30.90;64.70
63047;DHT22;62025;39.238;9.126;2022-09-09T15:46:49;31.00;63.30
63047;DHT22;62025;39.238;9.126;2022-09-09T15:49:19;31.10;63.10
63047;DHT22;62025;39.238;9.126;2022-09-09T15:51:58;31.00;63.10
63047;DHT22;62025;39.238;9.126;2022-09-09T15:54:32;31.00;62.60
63047;DHT22;62025;39.238;9.126;2022-09-09T15:57:02;31.10;62.70
63047;DHT22;62025;39.238;9.126;2022-09-09T15:59:31;31.10;62.80
63047;DHT22;62025;39.238;9.126;2022-09-09T16:02:01;31.10;62.60
63047;DHT22;62025;39.238;9.126;2022-09-09T16:04:28;31.00;63.50
63047;DHT22;62025;39.238;9.126;2022-09-09T16:06:58;30.90;63.50
63047;DHT22;62025;39.238;9.126;2022-09-09T16:09:27;31.00;62.80
63047;DHT22;62025;39.238;9.126;2022-09-09T16:11:57;31.00;63.60
63047;DHT22;62025;39.238;9.126;2022-09-09T16:14:24;31.00;62.50
63047;DHT22;62025;39.238;9.126;2022-09-09T16:16:51;31.10;62.10
63047;DHT22;62025;39.238;9.126;2022-09-09T16:19:17;31.00;61.30
63047;DHT22;62025;39.238;9.126;2022-09-09T16:21:46;31.00;60.80
63047;DHT22;62025;39.238;9.126;2022-09-09T16:24:16;31.10;59.90
63047;DHT22;62025;39.238;9.126;2022-09-09T16:26:47;31.20;59.70
63047;DHT22;62025;39.238;9.126;2022-09-09T16:29:15;31.20;58.10
63047;DHT22;62025;39.238;9.126;2022-09-09T16:31:44;31.20;55.70
63047;DHT22;62025;39.238;9.126;2022-09-09T16:34:11;31.20;45.90
63047;DHT22;62025;39.238;9.126;2022-09-09T16:36:39;31.30;42.50
63047;DHT22;62025;39.238;9.126;2022-09-09T16:39:11;31.30;38.10
63047;DHT22;62025;39.238;9.126;2022-09-09T16:41:42;31.20;33.80
63047;DHT22;62025;39.238;9.126;2022-09-09T16:44:12;31.20;33.40
63047;DHT22;62025;39.238;9.126;2022-09-09T16:46:41;31.20;33.40
63047;DHT22;62025;39.238;9.126;2022-09-09T16:49:10;31.20;32.30
63047;DHT22;62025;39.238;9.126;2022-09-09T16:51:46;31.20;32.00
63047;DHT22;62025;39.238;9.126;2022-09-09T16:54:15;31.20;31.70
63047;DHT22;62025;39.238;9.126;2022-09-09T16:56:44;31.20;30.60
63047;DHT22;62025;39.238;9.126;2022-09-09T16:59:14;31.20;31.20
63047;DHT22;62025;39.238;9.126;2022-09-09T17:01:43;31.20;30.40
63047;DHT22;62025;39.238;9.126;2022-09-09T17:04:13;31.20;30.60
63047;DHT22;62025;39.238;9.126;2022-09-09T17:06:42;31.20;30.50
63047;DHT22;62025;39.238;9.126;2022-09-09T17:09:12;31.20;31.30
63047;DHT22;62025;39.238;9.126;2022-09-09T17:11:39;31.20;31.70
63047;DHT22;62025;39.238;9.126;2022-09-09T17:14:08;31.20;33.00
63047;DHT22;62025;39.238;9.126;2022-09-09T17:16:37;31.20;32.00
63047;DHT22;62025;39.238;9.126;2022-09-09T17:19:05;31.10;32.80
63047;DHT22;62025;39.238;9.126;2022-09-09T17:21:32;31.10;33.30
63047;DHT22;62025;39.238;9.126;2022-09-09T17:23:59;31.10;33.60
63047;DHT22;62025;39.238;9.126;2022-09-09T17:26:28;31.10;33.70
63047;DHT22;62025;39.238;9.126;2022-09-09T17:28:55;31.00;33.80
63047;DHT22;62025;39.238;9.126;2022-09-09T17:31:24;30.60;44.40
63047;DHT22;62025;39.238;9.126;2022-09-09T17:33:52;30.40;39.80
63047;DHT22;62025;39.238;9.126;2022-09-09T17:36:27;30.20;36.80
63047;DHT22;62025;39.238;9.126;2022-09-09T17:38:59;30.10;36.30
63047;DHT22;62025;39.238;9.126;2022-09-09T17:41:29;30.10;35.90
63047;DHT22;62025;39.238;9.126;2022-09-09T17:43:56;30.00;35.30
63047;DHT22;62025;39.238;9.126;2022-09-09T17:46:34;29.90;35.10
63047;DHT22;62025;39.238;9.126;2022-09-09T17:49:04;29.90;34.80
63047;DHT22;62025;39.238;9.126;2022-09-09T17:51:33;29.90;34.70
63047;DHT22;62025;39.238;9.126;2022-09-09T17:54:02;29.90;34.70
63047;DHT22;62025;39.238;9.126;2022-09-09T17:56:35;29.80;34.70
63047;DHT22;62025;39.238;9.126;2022-09-09T17:59:03;29.80;35.00